createdAt,value
2023-01-11T00:02:22.445Z,100513.91
2023-01-11T00:04:58.806Z,100508.69
2023-01-11T00:07:28.475Z,100497.00
2023-01-11T00:10:04.031Z,100500.38
2023-01-11T00:12:33.524Z,100499.53
2023-01-11T00:15:02.286Z,100501.81
2023-01-11T00:17:33.349Z,100476.59
2023-01-11T00:20:01.093Z,100493.13
2023-01-11T00:22:29.649Z,100486.06
2023-01-11T00:24:59.715Z,100482.50
2023-01-11T00:27:28.716Z,100469.34
2023-01-11T00:29:56.101Z,100470.06
2023-01-11T00:32:25.196Z,100457.56
2023-01-11T00:34:54.517Z,100472.00
2023-01-11T00:37:23.479Z,100479.78
2023-01-11T00:40:06.547Z,100471.75
2023-01-11T00:42:53.917Z,100457.81
2023-01-11T00:45:40.162Z,100462.06
2023-01-11T00:48:10.932Z,100466.09
2023-01-11T00:50:42.042Z,100460.69
2023-01-11T00:53:10.557Z,100460.63
2023-01-11T00:55:42.987Z,100461.47
2023-01-11T00:58:13.989Z,100449.50
2023-01-11T01:00:41.737Z,100446.28
2023-01-11T01:03:17.160Z,100440.31
2023-01-11T01:05:49.949Z,100446.72
2023-01-11T01:08:18.922Z,100443.34
2023-01-11T01:10:46.270Z,100444.44
2023-01-11T01:13:35.890Z,100449.66
2023-01-11T01:16:04.895Z,100443.69
2023-01-11T01:18:33.975Z,100446.38
2023-01-11T01:21:06.698Z,100442.91
2023-01-11T01:23:37.753Z,100443.06
2023-01-11T01:26:12.680Z,100447.63
2023-01-11T01:28:40.901Z,100461.69
2023-01-11T01:31:11.490Z,100458.22
2023-01-11T01:33:43.680Z,100432.00
2023-01-11T01:36:19.330Z,100448.59
2023-01-11T01:38:51.690Z,100444.16
2023-01-11T01:41:19.862Z,100452.91
2023-01-11T01:44:03.732Z,100450.31
2023-01-11T01:46:34.262Z,100458.16
2023-01-11T01:49:15.700Z,100454.63
2023-01-11T01:51:55.372Z,100453.84
2023-01-11T01:54:36.775Z,100434.63
2023-01-11T01:57:22.618Z,100439.78
2023-01-11T02:00:04.202Z,100448.44
2023-01-11T02:02:37.394Z,100442.38
2023-01-11T02:05:07.983Z,100448.28
2023-01-11T02:07:42.060Z,100444.75
2023-01-11T02:10:32.826Z,100438.63
2023-01-11T02:13:11.053Z,100439.53
2023-01-11T02:15:41.908Z,100441.81
2023-01-11T02:18:16.737Z,100439.94
2023-01-11T02:21:25.895Z,100439.88
2023-01-11T02:25:08.303Z,100438.88
2023-01-11T02:28:12.217Z,100421.41
2023-01-11T02:31:16.776Z,100435.16
2023-01-11T02:34:33.938Z,100434.81
2023-01-11T02:38:03.522Z,100444.34
2023-01-11T02:41:16.830Z,100433.81
2023-01-11T02:44:31.465Z,100429.41
2023-01-11T02:47:15.455Z,100435.31
2023-01-11T02:50:32.390Z,100425.63
2023-01-11T02:53:39.752Z,100421.22
2023-01-11T02:56:16.796Z,100425.38
2023-01-11T02:58:50.454Z,100428.63
2023-01-11T03:04:03.064Z,100430.16
2023-01-11T03:06:35.794Z,100424.84
2023-01-11T03:09:42.425Z,100423.75
2023-01-11T03:12:48.302Z,100423.59
2023-01-11T03:16:24.627Z,100423.50
2023-01-11T03:19:44.643Z,100427.63
2023-01-11T03:23:04.534Z,100416.16
2023-01-11T03:25:43.521Z,100415.97
2023-01-11T03:28:38.361Z,100416.81
2023-01-11T03:31:30.849Z,100422.81
2023-01-11T03:34:52.164Z,100413.94
2023-01-11T03:37:45.810Z,100409.66
2023-01-11T03:40:40.697Z,100415.44
2023-01-11T03:43:16.618Z,100419.75
2023-01-11T03:46:28.565Z,100422.19
2023-01-11T03:49:24.112Z,100425.66
2023-01-11T03:51:55.280Z,100428.09
2023-01-11T03:54:28.704Z,100429.78
2023-01-11T03:57:23.708Z,100423.59
2023-01-11T03:59:52.000Z,100432.31
2023-01-11T04:02:35.633Z,100429.53
2023-01-11T04:05:10.249Z,100433.06
2023-01-11T04:07:38.548Z,100432.88
2023-01-11T04:10:08.424Z,100432.78
2023-01-11T04:12:37.108Z,100427.75
2023-01-11T04:15:06.516Z,100431.88
2023-01-11T04:17:34.990Z,100430.00
2023-01-11T04:20:04.619Z,100427.38
2023-01-11T04:22:32.059Z,100435.25
2023-01-11T04:24:59.416Z,100443.84
2023-01-11T04:27:31.184Z,100442.91
2023-01-11T04:29:59.561Z,100449.84
2023-01-11T04:32:26.911Z,100442.81
2023-01-11T04:34:55.424Z,100436.66
2023-01-11T04:37:23.142Z,100435.72
2023-01-11T04:39:51.915Z,100439.19
2023-01-11T04:42:21.869Z,100435.53
2023-01-11T04:44:52.480Z,100445.91
2023-01-11T04:47:24.454Z,100447.72
2023-01-11T04:49:53.347Z,100451.06
2023-01-11T04:52:21.224Z,100465.69
2023-01-11T04:54:52.731Z,100468.22
2023-01-11T04:57:22.171Z,100455.94
2023-01-11T04:59:51.571Z,100460.25
2023-01-11T05:02:20.163Z,100466.25
2023-01-11T05:04:48.907Z,100457.66
2023-01-11T05:07:17.202Z,100470.56
2023-01-11T05:09:44.788Z,100463.63
2023-01-11T05:12:12.321Z,100468.78
2023-01-11T05:14:40.629Z,100467.75
2023-01-11T05:17:08.934Z,100463.34
2023-01-11T05:19:36.460Z,100471.13
2023-01-11T05:22:11.459Z,100464.13
2023-01-11T05:24:39.031Z,100472.81
2023-01-11T05:27:10.978Z,100476.19
2023-01-11T05:29:38.343Z,100487.53
2023-01-11T05:32:07.138Z,100485.81
2023-01-11T05:34:35.734Z,100490.22
2023-01-11T05:37:03.015Z,100495.47
2023-01-11T05:39:31.777Z,100491.88
2023-01-11T05:42:06.357Z,100496.28
2023-01-11T05:44:53.140Z,100499.00
2023-01-11T05:47:20.532Z,100494.69
2023-01-11T05:49:47.795Z,100490.41
2023-01-11T05:52:16.220Z,100483.47
2023-01-11T05:54:44.620Z,100486.91
2023-01-11T05:57:14.645Z,100476.53
2023-01-11T05:59:42.730Z,100492.34
2023-01-11T06:02:10.627Z,100493.19
2023-01-11T06:04:43.931Z,100490.59
2023-01-11T06:07:12.513Z,100500.19
2023-01-11T06:09:41.839Z,100500.47
2023-01-11T06:12:09.208Z,100506.66
2023-01-11T06:14:38.130Z,100510.78
2023-01-11T06:17:07.923Z,100514.84
2023-01-11T06:19:35.667Z,100520.50
2023-01-11T06:22:03.760Z,100518.25
2023-01-11T06:24:31.893Z,100515.31
2023-01-11T06:26:59.488Z,100524.50
2023-01-11T06:29:26.801Z,100519.50
2023-01-11T06:31:54.215Z,100530.06
2023-01-11T06:34:21.668Z,100543.13
2023-01-11T06:36:50.030Z,100551.94
2023-01-11T06:39:21.169Z,100550.22
2023-01-11T06:41:50.505Z,100545.00
2023-01-11T06:44:19.610Z,100541.63
2023-01-11T06:46:49.585Z,100582.53
2023-01-11T06:49:18.345Z,100578.25
2023-01-11T06:51:45.667Z,100589.53
2023-01-11T06:54:13.134Z,100582.59
2023-01-11T06:56:47.932Z,100578.41
2023-01-11T06:59:16.652Z,100586.25
2023-01-11T07:01:44.083Z,100595.00
2023-01-11T07:04:14.447Z,100622.09
2023-01-11T07:06:49.330Z,100616.09
2023-01-11T07:09:17.153Z,100612.56
2023-01-11T07:11:51.829Z,100598.78
2023-01-11T07:14:22.802Z,100599.91
2023-01-11T07:16:53.851Z,100599.91
2023-01-11T07:19:30.653Z,100595.59
2023-01-11T07:22:20.862Z,100615.81
2023-01-11T07:24:52.566Z,100611.50
2023-01-11T07:27:29.870Z,100618.44
2023-01-11T07:30:11.104Z,100629.06
2023-01-11T07:32:46.739Z,100630.88
2023-01-11T07:38:21.438Z,100646.84
2023-01-11T07:41:01.497Z,100660.91
2023-01-11T07:43:56.673Z,100654.06
2023-01-11T07:46:44.078Z,100651.50
2023-01-11T07:52:13.087Z,100665.84
2023-01-11T07:54:48.054Z,100672.06
2023-01-11T07:57:29.807Z,100675.59
2023-01-11T07:59:58.795Z,100688.72
2023-01-11T08:02:35.383Z,100688.88
2023-01-11T08:05:08.354Z,100689.91
2023-01-11T08:07:36.884Z,100700.44
2023-01-11T08:10:13.133Z,100705.72
2023-01-11T08:13:34.454Z,100704.09
2023-01-11T08:16:15.760Z,100707.69
2023-01-11T08:18:44.850Z,100727.84
2023-01-11T08:21:16.053Z,100722.75
2023-01-11T08:23:52.036Z,100732.44
2023-01-11T08:29:53.170Z,100756.94
2023-01-11T08:32:31.504Z,100767.41
2023-01-11T08:35:00.517Z,100769.31
2023-01-11T08:37:30.501Z,100783.16
2023-01-11T08:40:02.322Z,100783.16
2023-01-11T08:45:28.072Z,100789.22
2023-01-11T08:57:36.655Z,100795.81
2023-01-11T09:03:30.142Z,100789.31
2023-01-11T09:06:55.429Z,100799.19
2023-01-11T09:09:28.522Z,100789.66
2023-01-11T09:12:05.835Z,100801.16
2023-01-11T09:14:53.940Z,100804.63
2023-01-11T09:17:26.538Z,100813.38
2023-01-11T09:22:54.947Z,100823.16
2023-01-11T09:25:25.919Z,100822.34
2023-01-11T09:28:12.740Z,100820.75
2023-01-11T09:33:30.420Z,100835.69
2023-01-11T09:36:09.974Z,100835.03
2023-01-11T09:38:50.537Z,100841.25
2023-01-11T09:42:08.501Z,100833.47
2023-01-11T09:45:14.495Z,100846.66
2023-01-11T09:48:11.514Z,100840.66
2023-01-11T09:51:10.019Z,100851.19
2023-01-11T09:53:56.381Z,100845.19
2023-01-11T09:56:44.209Z,100838.19
2023-01-11T09:59:59.975Z,100851.19
2023-01-11T10:03:19.994Z,100858.09
2023-01-11T10:06:23.170Z,100869.44
2023-01-11T10:18:32.377Z,100852.53
2023-01-11T10:19:59.285Z,100854.88
2023-01-11T10:22:50.341Z,100862.38
2023-01-11T10:25:33.939Z,100855.84
2023-01-11T10:28:26.299Z,100857.78
2023-01-11T10:30:59.861Z,100853.56
2023-01-11T10:37:32.634Z,100856.25
2023-01-11T10:40:26.107Z,100868.03
2023-01-11T10:43:04.866Z,100867.53
2023-01-11T10:46:08.210Z,100865.78
2023-01-11T10:48:46.354Z,100870.66
2023-01-11T10:51:58.966Z,100868.81
2023-01-11T10:54:36.896Z,100884.59
2023-01-11T10:58:01.436Z,100876.47
2023-01-11T11:00:49.946Z,100871.38
2023-01-11T11:07:39.033Z,100870.81
2023-01-11T11:10:45.190Z,100874.53
2023-01-11T11:13:38.515Z,100880.31
2023-01-11T11:16:24.114Z,100881.06
2023-01-11T11:19:08.953Z,100869.81
2023-01-11T11:21:46.940Z,100865.84
2023-01-11T11:24:56.565Z,100875.03
2023-01-11T11:28:01.286Z,100875.84
2023-01-11T11:31:10.382Z,100882.53
2023-01-11T11:33:47.039Z,100891.69
2023-01-11T11:36:49.964Z,100887.13
2023-01-11T11:39:47.183Z,100887.91
2023-01-11T11:42:23.939Z,100891.31
2023-01-11T11:45:18.869Z,100892.25
2023-01-11T11:48:06.113Z,100895.09
2023-01-11T11:50:45.088Z,100883.81
2023-01-11T11:53:57.334Z,100897.16
2023-01-11T11:57:01.120Z,100897.44
2023-01-11T11:59:36.258Z,100895.66
2023-01-11T12:02:40.066Z,100891.31
2023-01-11T12:05:21.148Z,100899.50
2023-01-11T12:08:13.396Z,100895.91
2023-01-11T12:10:59.588Z,100889.91
2023-01-11T12:13:39.958Z,100898.81
2023-01-11T12:16:43.223Z,100887.28
2023-01-11T12:22:41.034Z,100888.47
2023-01-11T12:25:29.982Z,100895.59
2023-01-11T12:28:47.461Z,100900.38
2023-01-11T12:31:57.828Z,100908.19
2023-01-11T12:35:08.711Z,100904.56
2023-01-11T12:37:55.071Z,100906.53
2023-01-11T12:41:11.127Z,100915.00
2023-01-11T12:44:42.255Z,100911.50
2023-01-11T12:52:37.333Z,100904.25
2023-01-11T12:56:02.841Z,100911.44
2023-01-11T12:59:47.606Z,100892.66
2023-01-11T13:03:05.091Z,100908.75
2023-01-11T13:10:02.106Z,100919.44
2023-01-11T13:13:15.171Z,100929.03
2023-01-11T13:16:36.809Z,100916.56
2023-01-11T13:19:27.284Z,100920.31
2023-01-11T13:22:09.462Z,100927.63
2023-01-11T13:24:56.027Z,100933.66
2023-01-11T13:28:01.169Z,100936.28
2023-01-11T13:30:41.774Z,100928.34
2023-01-11T13:36:23.968Z,100926.59
2023-01-11T13:39:47.760Z,100930.97
2023-01-11T13:46:21.786Z,100930.81
2023-01-11T13:57:01.294Z,100922.34
2023-01-11T13:59:56.238Z,100917.97
2023-01-11T14:02:47.149Z,100923.47
2023-01-11T14:05:38.626Z,100923.97
2023-01-11T14:09:18.786Z,100919.72
2023-01-11T14:12:41.908Z,100913.31
2023-01-11T14:16:02.292Z,100916.34
2023-01-11T14:18:59.535Z,100909.00
2023-01-11T14:22:53.125Z,100903.28
2023-01-11T14:26:01.786Z,100904.66
2023-01-11T14:29:04.951Z,100908.06
2023-01-11T14:32:44.482Z,100904.56
2023-01-11T14:36:04.350Z,100897.44
2023-01-11T14:39:20.415Z,100900.28
2023-01-11T14:42:32.099Z,100909.25
2023-01-11T14:45:54.716Z,100914.72
2023-01-11T14:49:13.618Z,100920.47
2023-01-11T14:52:04.762Z,100923.66
2023-01-11T14:58:21.772Z,100926.72
2023-01-11T15:01:10.176Z,100928.88
2023-01-11T15:03:50.786Z,100924.94
2023-01-11T15:06:38.785Z,100925.84
2023-01-11T15:09:52.017Z,100917.94
2023-01-11T15:12:42.045Z,100918.25
2023-01-11T15:15:31.350Z,100921.16
2023-01-11T15:18:20.945Z,100924.16
2023-01-11T15:21:53.972Z,100928.09
2023-01-11T15:27:57.399Z,100928.16
2023-01-11T15:30:31.718Z,100926.00
2023-01-11T15:34:07.559Z,100921.97
2023-01-11T15:37:33.494Z,100923.34
2023-01-11T15:41:28.378Z,100933.03
2023-01-11T15:44:36.714Z,100925.41
2023-01-11T15:53:11.034Z,100940.84
2023-01-11T15:56:51.017Z,100946.34
2023-01-11T16:03:29.529Z,100931.16
2023-01-11T16:06:57.406Z,100936.66
2023-01-11T16:10:43.197Z,100942.91
2023-01-11T16:14:21.020Z,100958.59
2023-01-11T16:23:06.823Z,100950.53
2023-01-11T16:25:44.399Z,100954.06
2023-01-11T16:28:32.315Z,100968.84
2023-01-11T16:34:09.170Z,100960.69
2023-01-11T16:36:48.899Z,100961.84
2023-01-11T16:39:37.237Z,100975.16
2023-01-11T16:45:26.989Z,100953.66
2023-01-11T16:48:32.235Z,100946.97
2023-01-11T16:51:20.382Z,100941.94
2023-01-11T16:54:26.627Z,100947.38
2023-01-11T16:57:16.368Z,100933.72
2023-01-11T17:00:24.026Z,100943.53
2023-01-11T17:03:26.538Z,100946.47
2023-01-11T17:06:28.384Z,100947.31
2023-01-11T17:09:16.481Z,100940.59
2023-01-11T17:15:52.658Z,100962.97
2023-01-11T17:18:44.016Z,100973.22
2023-01-11T17:21:31.964Z,100975.84
2023-01-11T17:24:08.276Z,100976.72
2023-01-11T17:26:53.585Z,100981.81
2023-01-11T17:29:42.901Z,100963.38
2023-01-11T17:32:37.195Z,100970.34
2023-01-11T17:35:38.510Z,100970.50
2023-01-11T17:38:11.271Z,100981.06
2023-01-11T17:40:46.904Z,100981.06
2023-01-11T17:43:53.776Z,100968.06
2023-01-11T17:52:54.449Z,100964.22
2023-01-11T17:55:36.660Z,100968.69
2023-01-11T17:58:32.972Z,100968.75
2023-01-11T18:01:26.110Z,100964.59
2023-01-11T18:04:10.437Z,100964.66
2023-01-11T18:09:49.525Z,100973.34
2023-01-11T18:12:34.016Z,100975.13
2023-01-11T18:15:17.540Z,100964.53
2023-01-11T18:17:55.546Z,100955.78
2023-01-11T18:20:53.383Z,100946.25
2023-01-11T18:23:30.114Z,100932.41
2023-01-11T18:29:41.930Z,100942.13
2023-01-11T18:32:16.731Z,100931.00
2023-01-11T18:34:51.739Z,100926.88
2023-01-11T18:37:22.508Z,100935.47
2023-01-11T18:39:54.236Z,100937.13
2023-01-11T18:42:32.958Z,100924.91
2023-01-11T18:45:01.950Z,100929.16
2023-01-11T18:47:30.767Z,100929.09
2023-01-11T18:50:09.008Z,100919.47
2023-01-11T18:52:42.171Z,100914.13
2023-01-11T18:55:28.011Z,100904.44
2023-01-11T18:58:06.573Z,100904.44
2023-01-11T19:00:35.209Z,100893.19
2023-01-11T19:03:08.238Z,100892.06
2023-01-11T19:05:39.333Z,100892.84
2023-01-11T19:08:19.379Z,100890.09
2023-01-11T19:14:02.950Z,100883.41
2023-01-11T19:16:32.739Z,100877.59
2023-01-11T19:19:09.362Z,100873.44
2023-01-11T19:21:50.960Z,100865.66
2023-01-11T19:24:27.732Z,100850.19
2023-01-11T19:26:56.159Z,100849.41
2023-01-11T19:29:30.207Z,100861.34
2023-01-11T19:32:08.411Z,100842.88
2023-01-11T19:34:42.414Z,100840.75
2023-01-11T19:40:00.231Z,100844.03
2023-01-11T19:42:41.381Z,100838.69
2023-01-11T19:45:19.242Z,100845.41
2023-01-11T19:50:42.909Z,100829.59
2023-01-11T19:53:11.090Z,100830.19
2023-01-11T19:58:33.422Z,100837.16
2023-01-11T20:04:28.384Z,100857.22
2023-01-11T20:07:04.764Z,100818.88
2023-01-11T20:09:46.224Z,100823.97
2023-01-11T20:12:30.061Z,100828.09
2023-01-11T20:15:02.553Z,100821.56
2023-01-11T20:17:36.035Z,100815.03
2023-01-11T20:20:15.605Z,100821.41
2023-01-11T20:22:47.498Z,100818.25
2023-01-11T20:25:22.594Z,100813.97
2023-01-11T20:27:56.650Z,100797.66
2023-01-11T20:30:29.479Z,100790.84
2023-01-11T20:32:58.595Z,100800.38
2023-01-11T20:35:32.941Z,100784.03
2023-01-11T20:38:03.187Z,100780.66
2023-01-11T20:40:30.603Z,100771.91
2023-01-11T20:43:00.998Z,100767.81
2023-01-11T20:45:30.574Z,100791.06
2023-01-11T20:48:01.482Z,100762.47
2023-01-11T20:50:31.517Z,100772.03
2023-01-11T20:53:01.048Z,100784.28
2023-01-11T20:55:34.744Z,100787.78
2023-01-11T20:58:03.559Z,100779.31
2023-01-11T21:00:34.077Z,100782.69
2023-01-11T21:03:03.409Z,100795.06
2023-01-11T21:05:31.049Z,100794.88
2023-01-11T21:07:59.153Z,100769.72
2023-01-11T21:10:30.383Z,100765.38
2023-01-11T21:13:02.234Z,100781.81
2023-01-11T21:18:31.615Z,100774.94
2023-01-11T21:21:21.863Z,100770.66
2023-01-11T21:24:02.041Z,100776.78
2023-01-11T21:26:33.539Z,100773.38
2023-01-11T21:29:05.219Z,100771.63
2023-01-11T21:31:40.491Z,100781.16
2023-01-11T21:34:13.523Z,100781.16
2023-01-11T21:36:45.462Z,100780.22
2023-01-11T21:39:17.829Z,100794.06
2023-01-11T21:41:59.825Z,100798.84
2023-01-11T21:44:48.796Z,100797.59
2023-01-11T21:47:20.290Z,100791.28
2023-01-11T21:50:07.150Z,100791.94
2023-01-11T21:53:00.592Z,100782.13
2023-01-11T21:55:39.191Z,100768.03
2023-01-11T21:58:08.601Z,100773.06
2023-01-11T22:00:36.355Z,100779.72
2023-01-11T22:03:06.529Z,100770.00
2023-01-11T22:05:35.506Z,100776.78
2023-01-11T22:08:13.990Z,100782.72
2023-01-11T22:10:55.251Z,100774.25
2023-01-11T22:13:23.068Z,100778.22
2023-01-11T22:15:50.785Z,100771.63
2023-01-11T22:18:23.631Z,100769.22
2023-01-11T22:20:51.425Z,100768.41
2023-01-11T22:23:19.807Z,100770.31
2023-01-11T22:25:47.223Z,100772.16
2023-01-11T22:28:18.452Z,100772.28
2023-01-11T22:30:47.768Z,100772.22
2023-01-11T22:33:23.922Z,100760.00
2023-01-11T22:35:58.136Z,100769.47
2023-01-11T22:38:26.817Z,100763.13
2023-01-11T22:41:00.223Z,100783.75
2023-01-11T22:43:30.267Z,100784.59
2023-01-11T22:46:02.900Z,100769.69
2023-01-11T22:48:33.620Z,100763.50
2023-01-11T22:51:30.159Z,100771.25
2023-01-11T22:53:58.949Z,100771.25
2023-01-11T22:56:29.563Z,100767.78
2023-01-11T22:59:01.082Z,100773.94
2023-01-11T23:01:43.539Z,100777.25
2023-01-11T23:04:22.798Z,100784.16
2023-01-11T23:06:54.588Z,100788.56
2023-01-11T23:12:28.258Z,100780.63
2023-01-11T23:14:57.461Z,100770.19
2023-01-11T23:17:24.811Z,100779.97
2023-01-11T23:22:42.159Z,100779.41
2023-01-11T23:25:12.517Z,100761.22
2023-01-11T23:27:43.325Z,100778.78
2023-01-11T23:30:14.585Z,100765.94
2023-01-11T23:32:45.435Z,100760.91
2023-01-11T23:35:13.022Z,100767.19
2023-01-11T23:37:42.428Z,100777.59
2023-01-11T23:40:12.836Z,100775.06
2023-01-11T23:42:40.613Z,100776.16
2023-01-11T23:45:20.020Z,100781.50
2023-01-11T23:47:50.323Z,100787.47
2023-01-11T23:50:20.859Z,100765.91
2023-01-11T23:52:49.921Z,100786.69
2023-01-11T23:55:27.416Z,100791.06
2023-01-11T23:58:10.585Z,100794.56
